sensor_id;sensor_type;location;lat;lon;timestamp;temperature;humidity
14016;DHT22;7083;48.854;9.158;2024-03-29T00:01:00;5.50;95.60
14016;DHT22;7083;48.854;9.158;2024-03-29T00:03:25;5.50;95.70
14016;DHT22;7083;48.854;9.158;2024-03-29T00:05:53;5.60;96.00
14016;DHT22;7083;48.854;9.158;2024-03-29T00:08:18;5.60;96.20
14016;DHT22;7083;48.854;9.158;2024-03-29T00:10:46;5.70;96.20
14016;DHT22;7083;48.854;9.158;2024-03-29T00:13:12;5.80;96.20
14016;DHT22;7083;48.854;9.158;2024-03-29T00:15:38;5.90;96.20
14016;DHT22;7083;48.854;9.158;2024-03-29T00:18:04;5.90;96.20
14016;DHT22;7083;48.854;9.158;2024-03-29T00:20:30;6.00;96.20
14016;DHT22;7083;48.854;9.158;2024-03-29T00:22:57;6.00;95.90
14016;DHT22;7083;48.854;9.158;2024-03-29T00:25:23;6.00;95.90
14016;DHT22;7083;48.854;9.158;2024-03-29T00:27:48;6.00;95.90
14016;DHT22;7083;48.854;9.158;2024-03-29T00:30:14;6.10;95.80
14016;DHT22;7083;48.854;9.158;2024-03-29T00:32:40;6.10;95.80
14016;DHT22;7083;48.854;9.158;2024-03-29T00:35:06;6.20;95.70
14016;DHT22;7083;48.854;9.158;2024-03-29T00:37:32;6.20;95.80
14016;DHT22;7083;48.854;9.158;2024-03-29T00:40:00;6.30;95.80
14016;DHT22;7083;48.854;9.158;2024-03-29T00:42:26;6.30;95.90
14016;DHT22;7083;48.854;9.158;2024-03-29T00:44:52;6.30;95.90
14016;DHT22;7083;48.854;9.158;2024-03-29T00:47:18;6.40;95.80
14016;DHT22;7083;48.854;9.158;2024-03-29T00:49:43;6.40;95.60
14016;DHT22;7083;48.854;9.158;2024-03-29T00:52:09;6.50;95.90
14016;DHT22;7083;48.854;9.158;2024-03-29T00:54:35;6.50;95.60
14016;DHT22;7083;48.854;9.158;2024-03-29T00:57:02;6.60;95.40
14016;DHT22;7083;48.854;9.158;2024-03-29T00:59:28;6.60;95.50
14016;DHT22;7083;48.854;9.158;2024-03-29T01:01:54;6.70;95.50
14016;DHT22;7083;48.854;9.158;2024-03-29T01:04:20;6.70;95.30
14016;DHT22;7083;48.854;9.158;2024-03-29T01:06:45;6.80;95.10
14016;DHT22;7083;48.854;9.158;2024-03-29T01:09:11;6.90;94.80
14016;DHT22;7083;48.854;9.158;2024-03-29T01:11:38;7.00;94.40
14016;DHT22;7083;48.854;9.158;2024-03-29T01:14:05;7.10;94.30
14016;DHT22;7083;48.854;9.158;2024-03-29T01:16:31;7.10;94.20
14016;DHT22;7083;48.854;9.158;2024-03-29T01:18:58;7.20;94.30
14016;DHT22;7083;48.854;9.158;2024-03-29T01:21:24;7.20;94.10
14016;DHT22;7083;48.854;9.158;2024-03-29T01:23:49;7.30;94.10
14016;DHT22;7083;48.854;9.158;2024-03-29T01:26:15;7.30;93.90
14016;DHT22;7083;48.854;9.158;2024-03-29T01:28:41;7.30;93.90
14016;DHT22;7083;48.854;9.158;2024-03-29T01:31:08;7.40;93.70
14016;DHT22;7083;48.854;9.158;2024-03-29T01:33:34;7.40;94.20
14016;DHT22;7083;48.854;9.158;2024-03-29T01:36:01;7.40;93.70
14016;DHT22;7083;48.854;9.158;2024-03-29T01:38:27;7.40;93.50
14016;DHT22;7083;48.854;9.158;2024-03-29T01:40:53;7.50;93.40
14016;DHT22;7083;48.854;9.158;2024-03-29T01:43:18;7.50;93.20
14016;DHT22;7083;48.854;9.158;2024-03-29T01:45:48;7.50;92.90
14016;DHT22;7083;48.854;9.158;2024-03-29T01:48:17;7.50;92.80
14016;DHT22;7083;48.854;9.158;2024-03-29T01:50:45;7.50;93.00
14016;DHT22;7083;48.854;9.158;2024-03-29T01:53:11;7.40;93.10
14016;DHT22;7083;48.854;9.158;2024-03-29T01:55:39;7.40;93.10
14016;DHT22;7083;48.854;9.158;2024-03-29T01:58:07;7.40;93.20
14016;DHT22;7083;48.854;9.158;2024-03-29T02:00:36;7.40;93.10
14016;DHT22;7083;48.854;9.158;2024-03-29T02:03:04;7.40;93.30
14016;DHT22;7083;48.854;9.158;2024-03-29T02:05:36;7.50;93.20
14016;DHT22;7083;48.854;9.158;2024-03-29T02:08:04;7.50;93.30
14016;DHT22;7083;48.854;9.158;2024-03-29T02:10:31;7.50;93.50
14016;DHT22;7083;48.854;9.158;2024-03-29T02:12:57;7.50;93.10
14016;DHT22;7083;48.854;9.158;2024-03-29T02:15:24;7.60;93.00
14016;DHT22;7083;48.854;9.158;2024-03-29T02:17:51;7.50;92.90
14016;DHT22;7083;48.854;9.158;2024-03-29T02:20:17;7.60;93.00
14016;DHT22;7083;48.854;9.158;2024-03-29T02:22:51;7.60;92.90
14016;DHT22;7083;48.854;9.158;2024-03-29T02:25:21;7.60;92.80
14016;DHT22;7083;48.854;9.158;2024-03-29T02:27:48;7.60;92.90
14016;DHT22;7083;48.854;9.158;2024-03-29T02:30:16;7.60;92.90
14016;DHT22;7083;48.854;9.158;2024-03-29T02:32:43;7.60;92.90
14016;DHT22;7083;48.854;9.158;2024-03-29T02:35:09;7.60;92.90
14016;DHT22;7083;48.854;9.158;2024-03-29T02:37:36;7.60;93.00
14016;DHT22;7083;48.854;9.158;2024-03-29T02:40:03;7.60;92.80
14016;DHT22;7083;48.854;9.158;2024-03-29T02:42:32;7.60;92.50
14016;DHT22;7083;48.854;9.158;2024-03-29T02:44:59;7.60;92.60
14016;DHT22;7083;48.854;9.158;2024-03-29T02:47:25;7.60;92.50
14016;DHT22;7083;48.854;9.158;2024-03-29T02:49:51;7.60;92.50
14016;DHT22;7083;48.854;9.158;2024-03-29T02:52:17;7.60;92.60
14016;DHT22;7083;48.854;9.158;2024-03-29T02:54:44;7.60;92.70
14016;DHT22;7083;48.854;9.158;2024-03-29T02:57:10;7.50;92.60
14016;DHT22;7083;48.854;9.158;2024-03-29T02:59:39;7.50;92.80
14016;DHT22;7083;48.854;9.158;2024-03-29T03:02:04;7.50;93.00
14016;DHT22;7083;48.854;9.158;2024-03-29T03:04:31;7.50;93.20
14016;DHT22;7083;48.854;9.158;2024-03-29T03:06:57;7.40;93.00
14016;DHT22;7083;48.854;9.158;2024-03-29T03:09:43;7.40;92.90
14016;DHT22;7083;48.854;9.158;2024-03-29T03:12:29;7.40;92.80
14016;DHT22;7083;48.854;9.158;2024-03-29T03:14:57;7.40;93.00
14016;DHT22;7083;48.854;9.158;2024-03-29T03:17:24;7.40;93.10
14016;DHT22;7083;48.854;9.158;2024-03-29T03:19:51;7.40;93.20
14016;DHT22;7083;48.854;9.158;2024-03-29T03:22:17;7.40;93.40
14016;DHT22;7083;48.854;9.158;2024-03-29T03:24:44;7.40;93.10
14016;DHT22;7083;48.854;9.158;2024-03-29T03:27:10;7.50;92.30
14016;DHT22;7083;48.854;9.158;2024-03-29T03:29:36;7.60;92.60
14016;DHT22;7083;48.854;9.158;2024-03-29T03:32:05;7.60;92.60
14016;DHT22;7083;48.854;9.158;2024-03-29T03:34:32;7.60;93.10
14016;DHT22;7083;48.854;9.158;2024-03-29T03:36:58;7.60;92.80
14016;DHT22;7083;48.854;9.158;2024-03-29T03:39:24;7.70;92.80
14016;DHT22;7083;48.854;9.158;2024-03-29T03:41:51;7.70;92.30
14016;DHT22;7083;48.854;9.158;2024-03-29T03:44:16;7.80;92.30
14016;DHT22;7083;48.854;9.158;2024-03-29T03:46:43;7.80;91.90
14016;DHT22;7083;48.854;9.158;2024-03-29T03:49:10;7.90;91.70
14016;DHT22;7083;48.854;9.158;2024-03-29T03:51:37;8.00;91.50
14016;DHT22;7083;48.854;9.158;2024-03-29T03:54:03;8.90;92.60
14016;DHT22;7083;48.854;9.158;2024-03-29T03:56:29;8.10;90.90
14016;DHT22;7083;48.854;9.158;2024-03-29T03:58:55;8.30;90.20
14016;DHT22;7083;48.854;9.158;2024-03-29T04:01:22;8.30;91.10
14016;DHT22;7083;48.854;9.158;2024-03-29T04:03:47;8.30;91.40
14016;DHT22;7083;48.854;9.158;2024-03-29T04:06:16;8.30;91.50
14016;DHT22;7083;48.854;9.158;2024-03-29T04:08:44;8.30;91.50
14016;DHT22;7083;48.854;9.158;2024-03-29T04:11:10;8.30;91.60
14016;DHT22;7083;48.854;9.158;2024-03-29T04:13:36;8.30;92.00
14016;DHT22;7083;48.854;9.158;2024-03-29T04:16:05;8.30;92.10
14016;DHT22;7083;48.854;9.158;2024-03-29T04:18:31;8.30;92.40
14016;DHT22;7083;48.854;9.158;2024-03-29T04:20:58;8.30;92.30
14016;DHT22;7083;48.854;9.158;2024-03-29T04:23:25;8.30;92.90
14016;DHT22;7083;48.854;9.158;2024-03-29T04:25:52;8.30;93.30
14016;DHT22;7083;48.854;9.158;2024-03-29T04:28:18;8.30;93.80
14016;DHT22;7083;48.854;9.158;2024-03-29T04:30:51;8.30;93.80
14016;DHT22;7083;48.854;9.158;2024-03-29T04:33:16;8.20;93.50
14016;DHT22;7083;48.854;9.158;2024-03-29T04:35:53;8.20;93.60
14016;DHT22;7083;48.854;9.158;2024-03-29T04:38:18;8.20;93.80
14016;DHT22;7083;48.854;9.158;2024-03-29T04:40:46;9.90;94.70
14016;DHT22;7083;48.854;9.158;2024-03-29T04:43:13;8.20;93.20
14016;DHT22;7083;48.854;9.158;2024-03-29T04:45:40;8.20;92.50
14016;DHT22;7083;48.854;9.158;2024-03-29T04:48:07;8.20;93.10
14016;DHT22;7083;48.854;9.158;2024-03-29T04:50:34;8.20;92.80
14016;DHT22;7083;48.854;9.158;2024-03-29T04:53:00;8.20;93.20
14016;DHT22;7083;48.854;9.158;2024-03-29T04:55:27;8.20;93.50
14016;DHT22;7083;48.854;9.158;2024-03-29T04:57:55;8.20;93.70
14016;DHT22;7083;48.854;9.158;2024-03-29T05:00:22;8.20;93.10
14016;DHT22;7083;48.854;9.158;2024-03-29T05:02:49;8.20;92.40
14016;DHT22;7083;48.854;9.158;2024-03-29T05:05:15;8.20;93.10
14016;DHT22;7083;48.854;9.158;2024-03-29T05:07:42;8.20;93.30
14016;DHT22;7083;48.854;9.158;2024-03-29T05:10:09;8.20;93.10
14016;DHT22;7083;48.854;9.158;2024-03-29T05:12:36;8.20;93.50
14016;DHT22;7083;48.854;9.158;2024-03-29T05:15:05;8.10;93.70
14016;DHT22;7083;48.854;9.158;2024-03-29T05:17:31;8.10;93.70
14016;DHT22;7083;48.854;9.158;2024-03-29T05:19:58;8.10;93.50
14016;DHT22;7083;48.854;9.158;2024-03-29T05:22:25;8.10;93.40
14016;DHT22;7083;48.854;9.158;2024-03-29T05:24:53;8.10;93.70
14016;DHT22;7083;48.854;9.158;2024-03-29T05:27:20;8.10;93.70
14016;DHT22;7083;48.854;9.158;2024-03-29T05:29:46;8.10;93.90
14016;DHT22;7083;48.854;9.158;2024-03-29T05:32:14;8.10;94.20
14016;DHT22;7083;48.854;9.158;2024-03-29T05:34:41;8.20;94.40
14016;DHT22;7083;48.854;9.158;2024-03-29T05:37:08;8.20;94.60
14016;DHT22;7083;48.854;9.158;2024-03-29T05:39:34;8.20;94.20
14016;DHT22;7083;48.854;9.158;2024-03-29T05:42:01;8.20;94.00
14016;DHT22;7083;48.854;9.158;2024-03-29T05:44:27;8.20;93.90
14016;DHT22;7083;48.854;9.158;2024-03-29T05:46:54;8.30;93.30
14016;DHT22;7083;48.854;9.158;2024-03-29T05:49:22;8.30;93.30
14016;DHT22;7083;48.854;9.158;2024-03-29T05:51:49;8.30;93.30
14016;DHT22;7083;48.854;9.158;2024-03-29T05:54:17;8.40;92.10
14016;DHT22;7083;48.854;9.158;2024-03-29T05:56:44;8.40;92.00
14016;DHT22;7083;48.854;9.158;2024-03-29T05:59:10;8.50;92.10
14016;DHT22;7083;48.854;9.158;2024-03-29T06:01:38;8.50;92.10
14016;DHT22;7083;48.854;9.158;2024-03-29T06:04:05;8.50;92.20
14016;DHT22;7083;48.854;9.158;2024-03-29T06:06:40;8.60;92.20
14016;DHT22;7083;48.854;9.158;2024-03-29T06:09:07;8.60;92.10
14016;DHT22;7083;48.854;9.158;2024-03-29T06:11:33;8.70;92.40
14016;DHT22;7083;48.854;9.158;2024-03-29T06:14:00;8.80;91.70
14016;DHT22;7083;48.854;9.158;2024-03-29T06:16:44;8.90;91.70
14016;DHT22;7083;48.854;9.158;2024-03-29T06:19:28;8.90;91.10
14016;DHT22;7083;48.854;9.158;2024-03-29T06:21:56;9.00;90.80
14016;DHT22;7083;48.854;9.158;2024-03-29T06:24:23;9.20;90.20
14016;DHT22;7083;48.854;9.158;2024-03-29T06:26:50;9.30;90.00
14016;DHT22;7083;48.854;9.158;2024-03-29T06:29:18;9.50;89.20
14016;DHT22;7083;48.854;9.158;2024-03-29T06:31:45;9.60;87.90
14016;DHT22;7083;48.854;9.158;2024-03-29T06:34:11;9.80;87.80
14016;DHT22;7083;48.854;9.158;2024-03-29T06:36:38;9.90;86.80
14016;DHT22;7083;48.854;9.158;2024-03-29T06:39:06;10.00;84.00
14016;DHT22;7083;48.854;9.158;2024-03-29T06:41:34;10.10;83.40
14016;DHT22;7083;48.854;9.158;2024-03-29T06:44:00;10.20;83.10
14016;DHT22;7083;48.854;9.158;2024-03-29T06:46:27;10.30;83.30
14016;DHT22;7083;48.854;9.158;2024-03-29T06:48:54;10.40;82.80
14016;DHT22;7083;48.854;9.158;2024-03-29T06:51:20;10.50;82.50
14016;DHT22;7083;48.854;9.158;2024-03-29T06:53:48;10.60;82.20
14016;DHT22;7083;48.854;9.158;2024-03-29T06:56:16;10.60;81.90
14016;DHT22;7083;48.854;9.158;2024-03-29T06:58:42;11.00;81.00
14016;DHT22;7083;48.854;9.158;2024-03-29T07:01:09;11.00;81.30
14016;DHT22;7083;48.854;9.158;2024-03-29T07:03:36;11.10;81.80
14016;DHT22;7083;48.854;9.158;2024-03-29T07:06:03;11.20;81.40
14016;DHT22;7083;48.854;9.158;2024-03-29T07:08:29;11.40;82.10
14016;DHT22;7083;48.854;9.158;2024-03-29T07:10:59;11.40;82.20
14016;DHT22;7083;48.854;9.158;2024-03-29T07:13:28;11.60;81.00
14016;DHT22;7083;48.854;9.158;2024-03-29T07:15:56;11.60;81.10
14016;DHT22;7083;48.854;9.158;2024-03-29T07:18:23;11.60;82.10
14016;DHT22;7083;48.854;9.158;2024-03-29T07:20:50;11.50;82.30
14016;DHT22;7083;48.854;9.158;2024-03-29T07:23:17;11.40;81.30
14016;DHT22;7083;48.854;9.158;2024-03-29T07:25:44;11.30;82.10
14016;DHT22;7083;48.854;9.158;2024-03-29T07:28:11;11.20;83.00
14016;DHT22;7083;48.854;9.158;2024-03-29T07:30:41;11.10;84.40
14016;DHT22;7083;48.854;9.158;2024-03-29T07:33:09;11.00;86.80
14016;DHT22;7083;48.854;9.158;2024-03-29T07:35:40;10.90;86.20
14016;DHT22;7083;48.854;9.158;2024-03-29T07:38:07;10.80;86.30
14016;DHT22;7083;48.854;9.158;2024-03-29T07:40:34;10.70;86.70
14016;DHT22;7083;48.854;9.158;2024-03-29T07:43:01;10.60;90.00
14016;DHT22;7083;48.854;9.158;2024-03-29T07:45:28;10.50;91.80
14016;DHT22;7083;48.854;9.158;2024-03-29T07:47:56;10.30;93.50
14016;DHT22;7083;48.854;9.158;2024-03-29T07:50:23;10.20;94.80
14016;DHT22;7083;48.854;9.158;2024-03-29T07:52:50;10.10;95.60
14016;DHT22;7083;48.854;9.158;2024-03-29T07:55:17;9.90;96.60
14016;DHT22;7083;48.854;9.158;2024-03-29T07:57:44;9.80;98.90
14016;DHT22;7083;48.854;9.158;2024-03-29T08:00:13;9.60;99.90
14016;DHT22;7083;48.854;9.158;2024-03-29T08:02:39;9.50;99.90
14016;DHT22;7083;48.854;9.158;2024-03-29T08:05:08;9.30;99.90
14016;DHT22;7083;48.854;9.158;2024-03-29T08:07:35;9.20;99.90
14016;DHT22;7083;48.854;9.158;2024-03-29T08:10:01;9.00;99.90
14016;DHT22;7083;48.854;9.158;2024-03-29T08:12:28;8.90;99.90
14016;DHT22;7083;48.854;9.158;2024-03-29T08:14:55;8.80;99.90
14016;DHT22;7083;48.854;9.158;2024-03-29T08:17:21;8.70;99.90
14016;DHT22;7083;48.854;9.158;2024-03-29T08:19:48;8.70;99.90
14016;DHT22;7083;48.854;9.158;2024-03-29T08:22:16;8.60;99.90
14016;DHT22;7083;48.854;9.158;2024-03-29T08:24:43;8.60;99.90
14016;DHT22;7083;48.854;9.158;2024-03-29T08:27:10;9.20;99.90
14016;DHT22;7083;48.854;9.158;2024-03-29T08:29:36;8.60;99.90
14016;DHT22;7083;48.854;9.158;2024-03-29T08:32:04;8.60;99.90
14016;DHT22;7083;48.854;9.158;2024-03-29T08:34:32;8.70;99.90
14016;DHT22;7083;48.854;9.158;2024-03-29T08:37:00;8.70;99.90
14016;DHT22;7083;48.854;9.158;2024-03-29T08:39:28;8.70;99.90
14016;DHT22;7083;48.854;9.158;2024-03-29T08:41:55;8.80;99.90
14016;DHT22;7083;48.854;9.158;2024-03-29T08:44:22;8.80;99.90
14016;DHT22;7083;48.854;9.158;2024-03-29T08:46:50;9.00;99.90
14016;DHT22;7083;48.854;9.158;2024-03-29T08:49:16;8.90;99.90
14016;DHT22;7083;48.854;9.158;2024-03-29T08:51:43;8.90;99.90
14016;DHT22;7083;48.854;9.158;2024-03-29T08:54:10;9.00;99.90
14016;DHT22;7083;48.854;9.158;2024-03-29T08:56:38;9.00;99.90
14016;DHT22;7083;48.854;9.158;2024-03-29T08:59:06;9.10;99.90
14016;DHT22;7083;48.854;9.158;2024-03-29T09:01:36;9.10;99.90
14016;DHT22;7083;48.854;9.158;2024-03-29T09:04:04;9.20;99.90
14016;DHT22;7083;48.854;9.158;2024-03-29T09:06:33;9.30;99.90
14016;DHT22;7083;48.854;9.158;2024-03-29T09:09:00;9.40;99.90
14016;DHT22;7083;48.854;9.158;2024-03-29T09:11:26;9.50;99.90
14016;DHT22;7083;48.854;9.158;2024-03-29T09:13:54;9.50;99.90
14016;DHT22;7083;48.854;9.158;2024-03-29T09:16:23;9.50;99.90
14016;DHT22;7083;48.854;9.158;2024-03-29T09:18:50;9.50;99.90
14016;DHT22;7083;48.854;9.158;2024-03-29T09:21:17;9.50;99.90
14016;DHT22;7083;48.854;9.158;2024-03-29T09:23:45;9.60;99.90
14016;DHT22;7083;48.854;9.158;2024-03-29T09:26:14;9.70;99.90
14016;DHT22;7083;48.854;9.158;2024-03-29T09:28:41;9.90;99.90
14016;DHT22;7083;48.854;9.158;2024-03-29T09:31:09;9.90;99.90
14016;DHT22;7083;48.854;9.158;2024-03-29T09:33:35;10.10;99.90
14016;DHT22;7083;48.854;9.158;2024-03-29T09:36:02;10.20;99.90
14016;DHT22;7083;48.854;9.158;2024-03-29T09:38:30;10.30;99.90
14016;DHT22;7083;48.854;9.158;2024-03-29T09:41:05;10.20;99.90
14016;DHT22;7083;48.854;9.158;2024-03-29T09:43:33;10.10;99.90
14016;DHT22;7083;48.854;9.158;2024-03-29T09:46:00;10.10;99.90
14016;DHT22;7083;48.854;9.158;2024-03-29T09:48:28;10.10;99.90
14016;DHT22;7083;48.854;9.158;2024-03-29T09:51:02;10.20;99.90
14016;DHT22;7083;48.854;9.158;2024-03-29T09:53:29;10.30;99.90
14016;DHT22;7083;48.854;9.158;2024-03-29T09:55:57;10.30;99.90
14016;DHT22;7083;48.854;9.158;2024-03-29T09:58:24;10.30;99.90
14016;DHT22;7083;48.854;9.158;2024-03-29T10:00:51;10.20;99.90
14016;DHT22;7083;48.854;9.158;2024-03-29T10:03:18;10.10;99.90
14016;DHT22;7083;48.854;9.158;2024-03-29T10:05:47;10.00;99.90
14016;DHT22;7083;48.854;9.158;2024-03-29T10:08:14;9.90;99.90
14016;DHT22;7083;48.854;9.158;2024-03-29T10:10:41;9.80;99.90
14016;DHT22;7083;48.854;9.158;2024-03-29T10:13:07;9.80;99.90
14016;DHT22;7083;48.854;9.158;2024-03-29T10:15:34;9.80;99.90
14016;DHT22;7083;48.854;9.158;2024-03-29T10:18:04;9.80;99.90
14016;DHT22;7083;48.854;9.158;2024-03-29T10:20:31;9.80;99.90
14016;DHT22;7083;48.854;9.158;2024-03-29T10:22:59;9.80;99.90
14016;DHT22;7083;48.854;9.158;2024-03-29T10:25:31;9.90;99.90
14016;DHT22;7083;48.854;9.158;2024-03-29T10:27:58;9.90;99.90
14016;DHT22;7083;48.854;9.158;2024-03-29T10:30:28;10.10;99.90
14016;DHT22;7083;48.854;9.158;2024-03-29T10:32:55;10.20;99.90
14016;DHT22;7083;48.854;9.158;2024-03-29T10:35:22;10.40;99.90
14016;DHT22;7083;48.854;9.158;2024-03-29T10:37:48;10.50;99.90
14016;DHT22;7083;48.854;9.158;2024-03-29T10:40:17;10.60;99.90
14016;DHT22;7083;48.854;9.158;2024-03-29T10:42:45;10.60;99.90
14016;DHT22;7083;48.854;9.158;2024-03-29T10:45:14;10.60;99.90
14016;DHT22;7083;48.854;9.158;2024-03-29T10:47:43;10.70;99.90
14016;DHT22;7083;48.854;9.158;2024-03-29T10:50:12;10.90;99.90
14016;DHT22;7083;48.854;9.158;2024-03-29T10:52:40;11.10;99.90
14016;DHT22;7083;48.854;9.158;2024-03-29T10:55:09;11.30;99.90
14016;DHT22;7083;48.854;9.158;2024-03-29T10:57:40;11.40;99.90
14016;DHT22;7083;48.854;9.158;2024-03-29T11:00:12;11.60;99.90
14016;DHT22;7083;48.854;9.158;2024-03-29T11:02:48;11.80;99.90
14016;DHT22;7083;48.854;9.158;2024-03-29T11:05:16;11.90;99.90
14016;DHT22;7083;48.854;9.158;2024-03-29T11:07:44;11.90;99.90
14016;DHT22;7083;48.854;9.158;2024-03-29T11:10:14;12.00;99.90
14016;DHT22;7083;48.854;9.158;2024-03-29T11:12:49;12.00;99.90
14016;DHT22;7083;48.854;9.158;2024-03-29T11:15:30;12.10;99.90
14016;DHT22;7083;48.854;9.158;2024-03-29T11:17:57;12.10;99.90
14016;DHT22;7083;48.854;9.158;2024-03-29T11:20:25;12.30;99.90
14016;DHT22;7083;48.854;9.158;2024-03-29T11:23:01;12.60;99.90
14016;DHT22;7083;48.854;9.158;2024-03-29T11:25:38;12.80;99.90
14016;DHT22;7083;48.854;9.158;2024-03-29T11:28:06;13.00;99.90
14016;DHT22;7083;48.854;9.158;2024-03-29T11:30:40;13.20;99.90
14016;DHT22;7083;48.854;9.158;2024-03-29T11:33:07;13.40;99.90
14016;DHT22;7083;48.854;9.158;2024-03-29T11:35:39;13.50;99.90
14016;DHT22;7083;48.854;9.158;2024-03-29T11:38:06;13.60;99.90
14016;DHT22;7083;48.854;9.158;2024-03-29T11:40:33;13.80;99.90
14016;DHT22;7083;48.854;9.158;2024-03-29T11:42:59;13.90;99.90
14016;DHT22;7083;48.854;9.158;2024-03-29T11:45:27;13.90;99.90
14016;DHT22;7083;48.854;9.158;2024-03-29T11:47:57;13.90;99.90
14016;DHT22;7083;48.854;9.158;2024-03-29T11:50:28;13.70;99.90
14016;DHT22;7083;48.854;9.158;2024-03-29T11:52:55;13.80;99.90
14016;DHT22;7083;48.854;9.158;2024-03-29T11:55:22;13.80;99.90
14016;DHT22;7083;48.854;9.158;2024-03-29T11:57:49;13.80;99.90
14016;DHT22;7083;48.854;9.158;2024-03-29T12:00:16;13.80;99.90
14016;DHT22;7083;48.854;9.158;2024-03-29T12:02:46;13.80;99.90
14016;DHT22;7083;48.854;9.158;2024-03-29T12:05:13;13.70;99.90
14016;DHT22;7083;48.854;9.158;2024-03-29T12:07:41;13.60;99.90
14016;DHT22;7083;48.854;9.158;2024-03-29T12:10:08;13.50;99.90
14016;DHT22;7083;48.854;9.158;2024-03-29T12:12:36;13.40;99.90
14016;DHT22;7083;48.854;9.158;2024-03-29T12:15:04;13.50;99.90
14016;DHT22;7083;48.854;9.158;2024-03-29T12:17:31;13.50;99.90
14016;DHT22;7083;48.854;9.158;2024-03-29T12:19:59;13.60;99.90
14016;DHT22;7083;48.854;9.158;2024-03-29T12:22:30;13.60;99.90
14016;DHT22;7083;48.854;9.158;2024-03-29T12:24:57;13.80;99.90
14016;DHT22;7083;48.854;9.158;2024-03-29T12:27:24;14.00;99.90
14016;DHT22;7083;48.854;9.158;2024-03-29T12:29:51;14.10;99.90
14016;DHT22;7083;48.854;9.158;2024-03-29T12:32:19;14.30;99.90
14016;DHT22;7083;48.854;9.158;2024-03-29T12:34:46;14.60;99.90
14016;DHT22;7083;48.854;9.158;2024-03-29T12:37:15;14.80;99.90
14016;DHT22;7083;48.854;9.158;2024-03-29T12:39:41;15.00;99.90
14016;DHT22;7083;48.854;9.158;2024-03-29T12:42:08;15.10;99.90
14016;DHT22;7083;48.854;9.158;2024-03-29T12:44:35;15.10;99.90
14016;DHT22;7083;48.854;9.158;2024-03-29T12:47:02;15.30;99.90
14016;DHT22;7083;48.854;9.158;2024-03-29T12:49:28;15.60;99.90
14016;DHT22;7083;48.854;9.158;2024-03-29T12:51:56;15.80;99.90
14016;DHT22;7083;48.854;9.158;2024-03-29T12:54:24;16.10;99.90
14016;DHT22;7083;48.854;9.158;2024-03-29T12:56:52;16.40;99.90
14016;DHT22;7083;48.854;9.158;2024-03-29T12:59:19;16.70;99.90
14016;DHT22;7083;48.854;9.158;2024-03-29T13:01:46;16.80;98.00
14016;DHT22;7083;48.854;9.158;2024-03-29T13:04:13;16.80;98.00
14016;DHT22;7083;48.854;9.158;2024-03-29T13:06:39;17.00;97.20
14016;DHT22;7083;48.854;9.158;2024-03-29T13:09:06;17.10;96.30
14016;DHT22;7083;48.854;9.158;2024-03-29T13:11:34;17.20;94.80
14016;DHT22;7083;48.854;9.158;2024-03-29T13:14:01;17.20;95.70
14016;DHT22;7083;48.854;9.158;2024-03-29T13:16:28;17.20;94.60
14016;DHT22;7083;48.854;9.158;2024-03-29T13:18:54;17.20;94.40
14016;DHT22;7083;48.854;9.158;2024-03-29T13:21:21;17.50;94.50
14016;DHT22;7083;48.854;9.158;2024-03-29T13:23:48;17.90;95.30
14016;DHT22;7083;48.854;9.158;2024-03-29T13:26:14;18.50;94.60
14016;DHT22;7083;48.854;9.158;2024-03-29T13:28:43;18.90;92.30
14016;DHT22;7083;48.854;9.158;2024-03-29T13:31:10;18.90;90.10
14016;DHT22;7083;48.854;9.158;2024-03-29T13:33:37;18.90;91.20
14016;DHT22;7083;48.854;9.158;2024-03-29T13:36:05;19.10;90.80
14016;DHT22;7083;48.854;9.158;2024-03-29T13:38:31;19.70;91.20
14016;DHT22;7083;48.854;9.158;2024-03-29T13:40:58;20.80;88.10
14016;DHT22;7083;48.854;9.158;2024-03-29T13:43:25;22.20;83.30
14016;DHT22;7083;48.854;9.158;2024-03-29T13:45:53;23.30;76.70
14016;DHT22;7083;48.854;9.158;2024-03-29T13:48:19;24.10;73.90
14016;DHT22;7083;48.854;9.158;2024-03-29T13:50:47;25.00;72.60
14016;DHT22;7083;48.854;9.158;2024-03-29T13:53:13;24.70;70.30
14016;DHT22;7083;48.854;9.158;2024-03-29T13:55:40;25.00;71.40
14016;DHT22;7083;48.854;9.158;2024-03-29T13:58:07;25.00;68.80
14016;DHT22;7083;48.854;9.158;2024-03-29T14:00:34;25.00;71.30
14016;DHT22;7083;48.854;9.158;2024-03-29T14:03:02;25.40;68.40
14016;DHT22;7083;48.854;9.158;2024-03-29T14:05:29;26.20;66.50
14016;DHT22;7083;48.854;9.158;2024-03-29T14:07:55;27.10;62.30
14016;DHT22;7083;48.854;9.158;2024-03-29T14:10:22;27.50;60.80
14016;DHT22;7083;48.854;9.158;2024-03-29T14:12:48;28.20;59.30
14016;DHT22;7083;48.854;9.158;2024-03-29T14:15:18;30.10;59.10
14016;DHT22;7083;48.854;9.158;2024-03-29T14:17:45;29.20;55.60
14016;DHT22;7083;48.854;9.158;2024-03-29T14:20:13;29.80;55.00
14016;DHT22;7083;48.854;9.158;2024-03-29T14:22:39;30.10;53.40
14016;DHT22;7083;48.854;9.158;2024-03-29T14:25:07;30.30;53.10
14016;DHT22;7083;48.854;9.158;2024-03-29T14:27:36;29.90;53.90
14016;DHT22;7083;48.854;9.158;2024-03-29T14:30:12;29.90;54.40
14016;DHT22;7083;48.854;9.158;2024-03-29T14:32:39;29.90;53.70
14016;DHT22;7083;48.854;9.158;2024-03-29T14:35:06;29.80;54.10
14016;DHT22;7083;48.854;9.158;2024-03-29T14:37:37;29.50;54.30
14016;DHT22;7083;48.854;9.158;2024-03-29T14:40:05;29.50;55.60
14016;DHT22;7083;48.854;9.158;2024-03-29T14:42:31;29.10;54.80
14016;DHT22;7083;48.854;9.158;2024-03-29T14:44:58;28.40;54.70
14016;DHT22;7083;48.854;9.158;2024-03-29T14:47:25;28.80;57.00
14016;DHT22;7083;48.854;9.158;2024-03-29T14:49:51;29.60;56.10
14016;DHT22;7083;48.854;9.158;2024-03-29T14:52:18;30.40;52.90
14016;DHT22;7083;48.854;9.158;2024-03-29T14:54:46;31.30;53.30
14016;DHT22;7083;48.854;9.158;2024-03-29T14:57:13;32.00;51.70
14016;DHT22;7083;48.854;9.158;2024-03-29T14:59:40;31.90;49.70
14016;DHT22;7083;48.854;9.158;2024-03-29T15:02:06;31.00;50.30
14016;DHT22;7083;48.854;9.158;2024-03-29T15:04:33;31.00;51.80
14016;DHT22;7083;48.854;9.158;2024-03-29T15:06:59;30.50;52.20
14016;DHT22;7083;48.854;9.158;2024-03-29T15:09:26;30.40;52.40
14016;DHT22;7083;48.854;9.158;2024-03-29T15:11:54;30.20;53.60
14016;DHT22;7083;48.854;9.158;2024-03-29T15:14:21;29.70;53.90
14016;DHT22;7083;48.854;9.158;2024-03-29T15:16:47;29.60;54.30
14016;DHT22;7083;48.854;9.158;2024-03-29T15:19:15;29.70;54.70
14016;DHT22;7083;48.854;9.158;2024-03-29T15:21:42;29.50;53.60
14016;DHT22;7083;48.854;9.158;2024-03-29T15:24:09;29.50;54.20
14016;DHT22;7083;48.854;9.158;2024-03-29T15:26:35;30.10;52.60
14016;DHT22;7083;48.854;9.158;2024-03-29T15:29:04;30.80;52.30
14016;DHT22;7083;48.854;9.158;2024-03-29T15:31:36;31.20;50.20
14016;DHT22;7083;48.854;9.158;2024-03-29T15:34:04;31.10;50.80
14016;DHT22;7083;48.854;9.158;2024-03-29T15:36:31;30.30;49.70
14016;DHT22;7083;48.854;9.158;2024-03-29T15:38:58;29.10;52.10
14016;DHT22;7083;48.854;9.158;2024-03-29T15:41:31;27.90;54.20
14016;DHT22;7083;48.854;9.158;2024-03-29T15:43:58;27.00;57.70
14016;DHT22;7083;48.854;9.158;2024-03-29T15:46:27;26.90;58.50
14016;DHT22;7083;48.854;9.158;2024-03-29T15:48:54;27.50;57.20
14016;DHT22;7083;48.854;9.158;2024-03-29T15:51:21;27.90;57.00
14016;DHT22;7083;48.854;9.158;2024-03-29T15:53:48;27.90;54.80
14016;DHT22;7083;48.854;9.158;2024-03-29T15:56:15;27.50;54.80